Terminal Aerodrome Forecast
Issued by NWS Billings, MT

Home | Current Version | Previous Version | Text Only | Print | Product List | Glossary Off
Versions: 1 2 3 4 5 6 7 8 9 10 11 12 13 14 15 16 17 18 19 20 21 22 23 24 25 26 27 28 29 30

702
FTUS45 KBYZ 202336
TAFMLS
TAF
KMLS 202336Z 2100/2124 03011KT P6SM SKC
     FM210300 VRB05G15KT P6SM VCTS SCT090CB BKN150
     FM210500 30011KT P6SM BKN120
     FM211500 32016G24KT P6SM FEW120=

USA.gov is the U.S. government's official web portal to all federal, state and local government web resources and services.